Jackson, WY (83001)

7:47 PM MDT on September 30, 2016 (GMT -0600)
KWYJACKS4 | | Change Station

Elev 6141 ft 43.47 °N, 110.80 °W | Updated 14 minutes ago

Clear
Clear
51.4 °F
Feels Like 51.4 °F
N
0.0
Wind Variable Wind from ESE

Today
High -- | Low -- °F
--% Chance of Precip.
Yesterday
High -- | Low -- °F
Precip. -- in
Pressure 30.23 in
Visibility 10.0 miles
Clouds Clear
Dew Point 47 °F
Humidity 85%
Rainfall 0.01 in
Snow Depth Not available.
7:20 AM 7:04 PM
New Moon, 0% visible
METAR KJAC 010045Z 23007KT 10SM CLR 13/07 A3023
Pressure 30.23 in
Visibility 10.0 miles
Clouds Clear
Dew Point 47 °F
Humidity 85%
Rainfall 0.01 in
Snow Depth Not available.
7:20 AM 7:04 PM
New Moon, 0% visible
METAR KJAC 010045Z 23007KT 10SM CLR 13/07 A3023

10-Day Weather Forecast

Almanac

Astronomy

Sep. 30, 2016 Rise Set
Actual Time
Civil Twilight
Nautical Twilight
Astronomical Twilight
Moon
Length of Visible Light
Length of Day
Tomorrow will be .
, % of the Moon is Illuminated

Today's Extremes

State Highs State Lows

Community

WunderPhotos

Upload Photos

1,942,837 photos uploaded!

WunderBlog® & News

Nearby

Air Quality

  Air Quality AQ Index Pollutant
Not available.

Snow Depth

Station Depth Elevation

Earthquake Activity

City Distance Mag. Time & Date
Minimum magnitude displayed is 2.5.

Coastal Water Temperatures

Place Temperature

Stations

Nearby Weather Stations

Station Location Temp. Windchill Dew Point Humidity Wind Precip. Elev Updated Type
                   

Watches & Warnings

There are currently no watches in effect.